Allensworth, California
Current Conditions -  °F | °C
As of 10:35 AM on Thursday 27 Nov 2014 (Local Time) from KPTV Reporting Station
Clear Clear  
Wind Chill: 17°   Ceiling: Unl
Heat Index: 17°   Visibility: 5mi
Dew Point:   Wind: 0mph
Humidity: 55%   Direction: NA
Pressure: 30.19"   Gusts: NA
Location:  35.856°N, 119.335°W
Report Text: KPTV 271835Z AUTO 00000KT 5SM CLR 17/08 A3019 RMK AO1
Loading
Personal Weather Stations






























Interactive Weather Map New forecast layout! Learn more

10-Day Weather Forecast

Advertisements
Track Severe Weather on mobile